Time;durP1;ratioP1;P1;durP2;ratioP2;P2;SDS_P1;SDS_P2;PMS_P1;PMS_P2;Temp;Humidity;BMP_temperature;BMP_pressure;BME280_temperature;BME280_humidity;BME280_pressure;Samples;Min_cycle;Max_cycle;Signal;HPM_P1;HPM_P2
2021/05/20 00:00:11;;;;;;;0.93;0.70;;;;;;;11.72;95.32;99296.38;1791181;78;21324;-68
2021/05/20 00:02:37;;;;;;;1.40;0.73;;;;;;;11.74;95.35;99304.33;1768103;79;21414;-69
2021/05/20 00:05:05;;;;;;;1.13;0.80;;;;;;;11.73;95.40;99304.09;1787671;78;21325;-69
2021/05/20 00:07:32;;;;;;;1.30;0.87;;;;;;;11.73;95.38;99305.98;1794510;78;21382;-69
2021/05/20 00:10:00;;;;;;;2.93;0.93;;;;;;;11.69;95.25;99299.09;1769178;78;21341;-69
2021/05/20 00:12:27;;;;;;;1.10;0.83;;;;;;;11.67;95.22;99302.59;1797002;78;21292;-68
2021/05/20 00:14:53;;;;;;;0.93;0.83;;;;;;;11.65;95.33;99298.10;1790139;78;21371;-69
2021/05/20 00:17:21;;;;;;;1.23;0.83;;;;;;;11.67;95.36;99309.83;1795637;78;21290;-68
2021/05/20 00:19:50;;;;;;;1.33;0.83;;;;;;;11.64;95.40;99305.06;1789777;78;21568;-69
2021/05/20 00:22:16;;;;;;;1.33;0.80;;;;;;;11.62;95.39;99297.35;1792918;78;21772;-67
2021/05/20 00:24:43;;;;;;;0.70;0.70;;;;;;;11.62;95.52;99296.02;1796969;78;21353;-68
2021/05/20 00:27:10;;;;;;;1.20;0.70;;;;;;;11.62;95.53;99296.56;1791194;78;21406;-68
2021/05/20 00:29:36;;;;;;;1.53;0.83;;;;;;;11.61;95.58;99297.08;1793303;78;21368;-67
2021/05/20 00:32:03;;;;;;;2.17;1.03;;;;;;;11.61;95.61;99311.78;1795684;78;21380;-69
2021/05/20 00:34:31;;;;;;;0.97;0.70;;;;;;;11.62;95.60;99297.90;1795103;78;21309;-69
2021/05/20 00:36:57;;;;;;;1.00;0.80;;;;;;;11.60;95.61;99309.42;1794737;78;21344;-69
2021/05/20 00:39:24;;;;;;;0.90;0.80;;;;;;;11.59;95.66;99303.83;1791721;78;21348;-68
2021/05/20 00:41:51;;;;;;;1.67;0.77;;;;;;;11.57;95.72;99308.13;1797822;78;21282;-68
2021/05/20 00:44:18;;;;;;;1.27;0.70;;;;;;;11.56;95.71;99309.77;1790534;78;21357;-68
2021/05/20 00:46:46;;;;;;;0.60;0.60;;;;;;;11.53;95.68;99299.66;1795794;79;21318;-69
2021/05/20 00:49:12;;;;;;;2.90;1.03;;;;;;;11.53;95.74;99298.31;1793663;78;21875;-69
2021/05/20 00:51:45;;;;;;;2.13;0.90;;;;;;;11.51;95.76;99314.64;1779821;79;21331;-68
2021/05/20 00:54:09;;;;;;;1.23;0.70;;;;;;;11.48;95.67;99304.53;1781396;78;23097;-66
2021/05/20 00:56:39;;;;;;;1.50;0.70;;;;;;;11.47;95.72;99302.95;1797584;79;21457;-68
2021/05/20 00:59:06;;;;;;;4.30;1.03;;;;;;;11.46;95.79;99304.83;1792955;78;21341;-67
2021/05/20 01:01:33;;;;;;;1.27;0.90;;;;;;;11.45;95.84;99304.59;1801089;78;21282;-68
2021/05/20 01:03:59;;;;;;;1.40;0.97;;;;;;;11.47;95.80;99298.94;1810011;77;22119;-68
2021/05/20 01:06:26;;;;;;;1.80;1.00;;;;;;;11.47;95.76;99301.06;1795155;78;21351;-69
2021/05/20 01:08:57;;;;;;;1.73;1.10;;;;;;;11.47;95.67;99303.73;1773540;79;21477;-68
2021/05/20 01:11:24;;;;;;;1.50;1.00;;;;;;;11.45;95.70;99301.92;1802815;78;21782;-68
2021/05/20 01:13:52;;;;;;;1.50;0.90;;;;;;;11.47;95.71;99302.41;1803095;78;21171;-67
2021/05/20 01:16:18;;;;;;;1.67;1.00;;;;;;;11.46;95.54;99300.03;1788979;78;21399;-68
2021/05/20 01:18:46;;;;;;;1.60;1.00;;;;;;;11.43;95.19;99310.77;1789887;78;21860;-68
2021/05/20 01:21:15;;;;;;;1.67;0.90;;;;;;;11.42;95.25;99293.14;1788837;78;21788;-67
2021/05/20 01:23:42;;;;;;;2.17;1.00;;;;;;;11.43;95.28;99317.45;1768969;79;21253;-68
2021/05/20 01:26:08;;;;;;;2.07;1.10;;;;;;;11.42;94.97;99301.16;1787830;79;21275;-69
2021/05/20 01:28:36;;;;;;;2.03;1.13;;;;;;;11.39;94.65;99297.73;1776280;80;21181;-67
2021/05/20 01:31:04;;;;;;;1.87;0.80;;;;;;;11.36;94.63;99301.00;1790862;78;21386;-67
2021/05/20 01:33:31;;;;;;;2.37;1.00;;;;;;;11.34;94.67;99289.00;1795564;78;21410;-68
2021/05/20 01:35:59;;;;;;;1.10;0.90;;;;;;;11.35;94.78;99291.40;1794980;78;21407;-67
2021/05/20 01:41:03;;;;;;;2.30;1.20;;;;;;;11.35;94.99;99306.10;1791690;78;21364;-69
2021/05/20 01:43:31;;;;;;;2.50;1.03;;;;;;;11.35;94.96;99296.75;1794570;78;21311;-67
2021/05/20 01:45:59;;;;;;;3.67;1.30;;;;;;;11.35;94.97;99295.41;1794300;79;21776;-68
2021/05/20 01:48:36;;;;;;;3.00;1.27;;;;;;;11.32;95.02;99295.99;1791329;78;21416;-68
2021/05/20 01:51:15;;;;;;;3.13;1.40;;;;;;;11.33;95.08;99295.44;1794756;78;21275;-67
2021/05/20 01:53:45;;;;;;;1.43;1.10;;;;;;;11.32;94.98;99298.66;1791374;78;21337;-69
2021/05/20 01:56:15;;;;;;;3.27;1.50;;;;;;;11.33;95.00;99289.55;1796197;78;21363;-69
2021/05/20 01:58:42;;;;;;;2.50;1.30;;;;;;;11.37;94.94;99291.87;1796618;79;21274;-68
2021/05/20 02:01:11;;;;;;;2.40;1.40;;;;;;;11.38;94.83;99290.78;1781829;78;21195;-68
2021/05/20 02:03:37;;;;;;;2.40;1.20;;;;;;;11.41;94.82;99294.76;1792048;78;21318;-67
2021/05/20 02:06:05;;;;;;;1.63;1.27;;;;;;;11.39;94.50;99296.41;1791251;79;21935;-68
2021/05/20 02:08:36;;;;;;;5.03;1.47;;;;;;;11.38;94.27;99296.13;1796182;77;22444;-68
2021/05/20 02:11:06;;;;;;;2.13;1.40;;;;;;;11.37;94.18;99293.77;1785420;78;21318;-69
2021/05/20 02:13:33;;;;;;;2.00;1.20;;;;;;;11.36;94.09;99288.97;1781113;78;21354;-68
2021/05/20 02:16:00;;;;;;;2.67;1.40;;;;;;;11.39;94.00;99296.41;1793705;78;21375;-68
2021/05/20 02:18:29;;;;;;;2.90;1.40;;;;;;;11.40;93.90;99300.66;1790580;78;21292;-68
2021/05/20 02:20:56;;;;;;;3.43;1.50;;;;;;;11.43;93.87;99289.92;1789056;78;21259;-68
2021/05/20 02:23:23;;;;;;;3.67;1.80;;;;;;;11.46;93.80;99296.02;1797230;79;21210;-68
2021/05/20 02:25:49;;;;;;;2.80;1.30;;;;;;;11.49;93.50;99309.59;1796051;78;21848;-69
2021/05/20 02:28:16;;;;;;;2.43;1.50;;;;;;;11.52;93.38;99297.53;1794860;79;21404;-67
2021/05/20 02:30:43;;;;;;;2.87;1.50;;;;;;;11.54;93.13;99299.34;1792923;78;21336;-69
2021/05/20 02:33:11;;;;;;;3.00;1.50;;;;;;;11.56;93.06;99290.50;1797208;79;21378;-69
2021/05/20 02:35:37;;;;;;;3.33;1.70;;;;;;;11.57;92.72;99295.30;1787627;78;21233;-69
2021/05/20 02:38:04;;;;;;;2.57;1.50;;;;;;;11.56;92.19;99292.38;1787988;78;21718;-68
2021/05/20 02:40:31;;;;;;;3.03;1.50;;;;;;;11.55;91.98;99290.26;1790894;78;21692;-68
2021/05/20 02:42:57;;;;;;;3.17;1.30;;;;;;;11.54;91.86;99297.22;1800511;78;21197;-69
2021/05/20 02:45:26;;;;;;;3.07;1.60;;;;;;;11.51;91.19;99294.59;1802938;78;21297;-68
2021/05/20 02:47:52;;;;;;;3.93;1.93;;;;;;;11.51;91.19;99295.38;1779103;78;21386;-68
2021/05/20 02:50:24;;;;;;;2.30;1.60;;;;;;;11.53;90.89;99294.30;1793301;78;21388;-68
2021/05/20 02:52:51;;;;;;;2.73;1.70;;;;;;;11.55;90.52;99287.58;1793128;78;21386;-69
2021/05/20 02:55:20;;;;;;;4.53;2.57;;;;;;;11.58;90.53;99295.02;1784544;78;21185;-68
2021/05/20 02:57:51;;;;;;;5.25;1.77;;;;;;;11.60;90.42;99288.81;1772575;79;21477;-69
2021/05/20 03:00:19;;;;;;;2.70;1.60;;;;;;;11.63;90.18;99295.47;1790731;78;21116;-68
2021/05/20 03:02:52;;;;;;;3.70;1.70;;;;;;;11.62;89.66;99291.21;1772589;79;21316;-68
2021/05/20 03:05:19;;;;;;;2.07;1.60;;;;;;;11.61;89.55;99294.41;1793348;79;21261;-68
2021/05/20 03:07:47;;;;;;;4.33;1.90;;;;;;;11.66;89.47;99290.86;1788131;78;21574;-68
2021/05/20 03:10:14;;;;;;;6.23;1.60;;;;;;;11.65;89.10;99294.64;1793442;78;21304;-67
2021/05/20 03:12:41;;;;;;;3.97;1.80;;;;;;;11.64;88.79;99295.70;1789889;78;21394;-67
2021/05/20 03:15:10;;;;;;;5.20;1.60;;;;;;;11.67;88.72;99297.79;1750601;81;21320;-68
2021/05/20 03:17:37;;;;;;;3.47;1.50;;;;;;;11.70;88.37;99296.66;1752265;80;21353;-68
2021/05/20 03:20:05;;;;;;;3.83;1.63;;;;;;;11.74;88.12;99294.18;1753067;80;21874;-68
2021/05/20 03:22:32;;;;;;;3.50;1.53;;;;;;;11.76;87.83;99283.98;1797024;78;21128;-68
2021/05/20 03:24:59;;;;;;;2.97;1.70;;;;;;;11.75;87.36;99289.10;1794476;78;21415;-68
2021/05/20 03:27:25;;;;;;;2.87;1.50;;;;;;;11.76;87.17;99304.60;1795952;78;21346;-69
2021/05/20 03:29:52;;;;;;;2.10;1.40;;;;;;;11.77;87.02;99301.63;1789657;78;21354;-69
2021/05/20 03:32:20;;;;;;;2.83;1.40;;;;;;;11.79;86.57;99293.31;1792557;78;37929;-69
2021/05/20 03:34:47;;;;;;;2.93;1.50;;;;;;;11.82;86.58;99292.17;1794901;79;21224;-69
2021/05/20 03:37:14;;;;;;;3.23;1.33;;;;;;;11.83;85.75;99288.41;1786501;78;21432;-69
2021/05/20 03:39:41;;;;;;;2.93;1.30;;;;;;;11.85;85.50;99288.94;1793706;78;21308;-69
2021/05/20 03:42:07;;;;;;;2.87;1.50;;;;;;;11.91;85.55;99293.63;1808096;78;21311;-68
2021/05/20 03:44:34;;;;;;;1.63;1.30;;;;;;;11.94;84.99;99307.23;1810733;78;21340;-69
2021/05/20 03:47:01;;;;;;;1.93;1.03;;;;;;;11.93;84.11;99300.83;1798023;78;21244;-69
2021/05/20 03:49:28;;;;;;;2.07;1.30;;;;;;;11.93;83.97;99308.86;1793301;78;21352;-68
2021/05/20 03:51:54;;;;;;;3.73;1.40;;;;;;;11.95;83.84;99301.34;1801274;78;21379;-70
2021/05/20 03:54:21;;;;;;;2.50;1.33;;;;;;;11.97;83.50;99317.88;1807305;78;21381;-69
2021/05/20 03:56:47;;;;;;;3.67;1.30;;;;;;;11.94;83.15;99305.91;1812837;77;21273;-69
2021/05/20 03:59:14;;;;;;;2.37;1.20;;;;;;;11.95;83.52;99312.04;1792552;78;21398;-68
2021/05/20 04:01:41;;;;;;;2.20;1.23;;;;;;;12.00;83.69;99312.48;1796777;78;21346;-68
2021/05/20 04:04:08;;;;;;;3.63;1.40;;;;;;;12.05;83.48;99312.39;1806305;78;21338;-68
2021/05/20 04:06:35;;;;;;;4.47;1.57;;;;;;;12.05;82.34;99333.81;1815588;78;21394;-69
2021/05/20 04:09:02;;;;;;;2.17;1.23;;;;;;;12.03;82.12;99310.55;1806705;78;21386;-67
2021/05/20 04:11:30;;;;;;;3.80;1.40;;;;;;;12.05;82.33;99313.73;1794505;78;21344;-68
2021/05/20 04:13:58;;;;;;;2.33;1.30;;;;;;;12.10;82.48;99315.75;1798828;78;21401;-69
2021/05/20 04:16:25;;;;;;;2.60;1.30;;;;;;;12.16;82.17;99310.55;1800163;78;21380;-71
2021/05/20 04:18:53;;;;;;;3.20;1.30;;;;;;;12.21;81.73;99302.98;1802244;78;21396;-69
2021/05/20 04:21:21;;;;;;;2.73;1.20;;;;;;;12.25;81.37;99309.31;1800693;77;21415;-68
2021/05/20 04:23:48;;;;;;;2.17;1.17;;;;;;;12.26;80.87;99305.54;1774596;79;21384;-68
2021/05/20 04:26:19;;;;;;;2.07;1.00;;;;;;;12.26;80.71;99325.63;1813473;77;21335;-69
2021/05/20 04:28:47;;;;;;;2.47;1.30;;;;;;;12.28;80.96;99317.30;1790439;78;21875;-68
2021/05/20 04:31:14;;;;;;;2.87;1.10;;;;;;;12.29;80.69;99323.69;1774693;79;21020;-68
2021/05/20 04:33:41;;;;;;;2.87;1.17;;;;;;;12.26;80.74;99317.59;1760437;80;21346;-69
2021/05/20 04:36:08;;;;;;;2.80;1.30;;;;;;;12.25;80.83;99318.69;1766691;80;21626;-68
2021/05/20 04:38:36;;;;;;;2.13;1.30;;;;;;;12.27;80.77;99330.42;1759845;80;21829;-68
2021/05/20 04:41:03;;;;;;;1.77;1.23;;;;;;;12.26;80.62;99325.63;1755506;80;21328;-69
2021/05/20 04:43:29;;;;;;;2.33;1.30;;;;;;;12.23;80.38;99322.75;1752180;80;21431;-69
2021/05/20 04:45:56;;;;;;;2.50;1.30;;;;;;;12.17;80.72;99326.88;1759636;80;21688;-69
2021/05/20 04:48:23;;;;;;;2.20;1.40;;;;;;;12.15;80.96;99325.58;1761999;80;21967;-69
2021/05/20 04:50:49;;;;;;;2.53;1.37;;;;;;;12.17;81.29;99324.72;1757029;80;21326;-70
2021/05/20 04:53:16;;;;;;;2.60;1.27;;;;;;;12.17;81.05;99335.43;1767341;79;21494;-68
2021/05/20 04:55:43;;;;;;;1.97;1.30;;;;;;;12.19;81.29;99334.59;1767265;79;21308;-68
2021/05/20 04:58:10;;;;;;;4.30;1.53;;;;;;;12.16;80.73;99349.91;1779451;79;21284;-68
2021/05/20 05:00:36;;;;;;;3.67;1.50;;;;;;;12.11;81.15;99357.50;1794298;78;21965;-69
2021/05/20 05:03:03;;;;;;;3.27;1.30;;;;;;;12.10;81.34;99337.71;1795542;78;21192;-69
2021/05/20 05:05:30;;;;;;;2.37;1.50;;;;;;;12.10;81.40;99345.73;1796543;78;21408;-69
2021/05/20 05:07:58;;;;;;;1.87;1.43;;;;;;;12.12;81.48;99345.70;1807953;78;21350;-68
2021/05/20 05:10:25;;;;;;;3.07;1.40;;;;;;;12.10;81.12;99355.89;1795334;78;21299;-69
2021/05/20 05:12:51;;;;;;;3.00;1.30;;;;;;;12.13;81.14;99367.90;1794738;78;21234;-70
2021/05/20 05:15:20;;;;;;;2.63;1.30;;;;;;;12.17;81.14;99364.88;1767394;78;21261;-68
2021/05/20 05:17:46;;;;;;;4.23;1.43;;;;;;;12.22;80.93;99355.42;1786109;78;21922;-68
2021/05/20 05:20:13;;;;;;;3.70;1.70;;;;;;;12.29;80.87;99359.83;1800111;78;21319;-69
2021/05/20 05:22:40;;;;;;;2.27;1.50;;;;;;;12.43;80.53;99354.47;1789598;78;21274;-69
2021/05/20 05:25:08;;;;;;;5.03;1.63;;;;;;;12.53;79.78;99368.20;1790937;78;21392;-69
2021/05/20 05:27:35;;;;;;;4.47;1.50;;;;;;;12.66;78.73;99356.69;1787782;78;21301;-67
2021/05/20 05:30:03;;;;;;;4.10;1.30;;;;;;;12.66;78.73;99356.69;1778335;78;21232;-68
2021/05/20 05:32:31;;;;;;;2.90;1.40;;;;;;;12.77;78.27;99368.00;1807829;77;21400;-68
2021/05/20 05:34:58;;;;;;;4.37;1.60;;;;;;;12.86;77.99;99365.62;1795893;78;22628;-70
2021/05/20 05:37:24;;;;;;;3.50;1.20;;;;;;;12.98;77.69;99362.43;1773996;79;21338;-69
2021/05/20 05:39:52;;;;;;;2.97;1.40;;;;;;;13.25;77.35;99360.23;1807922;77;21394;-69
2021/05/20 05:42:19;;;;;;;2.53;1.20;;;;;;;13.25;77.35;99360.23;1792783;78;21441;-69
2021/05/20 05:44:46;;;;;;;2.90;1.30;;;;;;;13.42;75.88;99378.91;1793070;78;21531;-69
2021/05/20 05:47:13;;;;;;;3.87;1.50;;;;;;;13.56;75.11;99372.95;1779170;79;21603;-69
2021/05/20 05:49:45;;;;;;;3.70;1.47;;;;;;;13.63;73.76;99370.63;1800541;78;21569;-69
2021/05/20 05:52:17;;;;;;;2.37;1.43;;;;;;;13.69;74.13;99366.72;1797202;78;21596;-67
2021/05/20 05:54:39;;;;;;;3.47;1.50;;;;;;;13.76;73.12;99365.73;1790079;78;21591;-70
2021/05/20 05:57:06;;;;;;;2.57;1.20;;;;;;;13.83;73.30;99368.77;1802641;78;22381;-70
2021/05/20 05:59:33;;;;;;;2.77;1.33;;;;;;;13.96;73.16;99368.44;1797735;78;21899;-68
2021/05/20 06:01:59;;;;;;;4.50;1.60;;;;;;;14.03;72.76;99369.34;1797401;78;22338;-69
2021/05/20 06:04:28;;;;;;;3.37;1.40;;;;;;;14.16;72.85;99375.17;1796892;78;21784;-68
2021/05/20 06:06:56;;;;;;;3.03;1.50;;;;;;;14.29;71.64;99380.20;1799340;78;21843;-68
2021/05/20 06:09:24;;;;;;;4.73;1.80;;;;;;;14.36;70.47;99373.83;1798175;78;21681;-69
2021/05/20 06:11:51;;;;;;;2.27;1.43;;;;;;;14.33;70.27;99385.19;1754139;79;23102;-69
2021/05/20 06:14:18;;;;;;;2.40;1.40;;;;;;;14.35;70.68;99385.69;1797656;78;21717;-69
2021/05/20 06:16:46;;;;;;;2.23;1.30;;;;;;;14.39;69.68;99391.22;1795932;78;21758;-68
2021/05/20 06:19:13;;;;;;;4.30;1.90;;;;;;;14.40;70.01;99401.64;1796382;78;21679;-69
2021/05/20 06:21:40;;;;;;;4.30;1.40;;;;;;;14.47;70.30;99394.48;1794235;78;21758;-68
2021/05/20 06:24:09;;;;;;;2.17;1.30;;;;;;;14.51;69.08;99390.09;1807174;77;21797;-70
2021/05/20 06:26:37;;;;;;;2.57;1.40;;;;;;;14.48;68.10;99396.88;1808940;77;21119;-69
2021/05/20 06:29:03;;;;;;;3.50;1.33;;;;;;;14.44;67.02;99404.50;1804049;77;21640;-68
2021/05/20 06:31:32;;;;;;;5.17;1.50;;;;;;;14.39;67.28;99408.13;1799168;77;22247;-69
2021/05/20 06:33:59;;;;;;;2.73;1.30;;;;;;;14.38;67.08;99407.08;1774059;79;21765;-69
2021/05/20 06:36:26;;;;;;;3.53;1.20;;;;;;;14.36;67.37;99404.72;1790096;78;21752;-69
2021/05/20 06:38:53;;;;;;;2.07;1.20;;;;;;;14.38;67.40;99414.61;1777972;79;21744;-68
2021/05/20 06:41:20;;;;;;;4.07;1.40;;;;;;;14.42;67.27;99418.26;1796139;78;22263;-68
2021/05/20 06:43:47;;;;;;;3.00;1.43;;;;;;;14.43;66.86;99433.27;1773147;79;21721;-70
2021/05/20 06:46:15;;;;;;;2.47;1.20;;;;;;;14.43;66.56;99431.13;1797228;78;21754;-69
2021/05/20 06:48:42;;;;;;;3.23;1.40;;;;;;;14.41;66.58;99422.05;1792690;78;21694;-69
2021/05/20 06:51:09;;;;;;;5.47;1.30;;;;;;;14.39;66.94;99427.48;1789468;78;22344;-68
2021/05/20 06:53:37;;;;;;;3.67;1.20;;;;;;;14.40;67.88;99438.47;1750740;80;21672;-68
2021/05/20 06:56:10;;;;;;;6.73;1.80;;;;;;;14.43;68.17;99439.98;1799131;78;22343;-67
2021/05/20 07:01:20;;;;;;;3.80;1.97;;;;;;;14.39;67.46;99451.67;1798035;78;21780;-69
2021/05/20 07:03:46;;;;;;;4.27;1.70;;;;;;;14.37;67.33;99454.64;1798099;78;21842;-69
2021/05/20 07:06:13;;;;;;;3.20;1.90;;;;;;;14.40;67.15;99458.61;1801198;78;21654;-68
2021/05/20 07:08:41;;;;;;;2.40;1.23;;;;;;;14.47;65.43;99446.87;1798410;78;21738;-69
2021/05/20 07:11:09;;;;;;;3.10;1.50;;;;;;;14.47;65.43;99446.87;1797127;78;21097;-69
2021/05/20 07:13:37;;;;;;;2.27;1.47;;;;;;;14.57;65.87;99410.90;1794882;78;21791;-68
2021/05/20 07:16:04;;;;;;;5.17;2.80;;;;;;;14.72;65.32;99434.67;1801347;78;21726;-69
2021/05/20 07:18:30;;;;;;;5.20;1.90;;;;;;;14.86;64.97;99438.02;1796828;78;21796;-69
2021/05/20 07:20:58;;;;;;;2.93;1.40;;;;;;;14.96;63.63;99475.37;1812819;79;21756;-69
2021/05/20 07:23:24;;;;;;;1.80;1.40;;;;;;;15.10;63.54;99436.25;1800038;78;21078;-69
2021/05/20 07:25:51;;;;;;;3.00;1.40;;;;;;;15.10;63.54;99436.25;1794204;78;21150;-69
2021/05/20 07:28:19;;;;;;;4.23;1.50;;;;;;;15.12;63.03;99448.84;1789932;78;21119;-69
2021/05/20 07:30:46;;;;;;;2.87;1.27;;;;;;;15.03;63.37;99444.55;1801400;79;21165;-69
2021/05/20 07:33:13;;;;;;;3.30;1.50;;;;;;;14.92;63.54;99449.44;1789530;78;21675;-67
2021/05/20 07:35:41;;;;;;;4.90;1.60;;;;;;;14.83;63.47;99457.47;1789710;78;21000;-70
2021/05/20 07:38:08;;;;;;;3.50;1.40;;;;;;;14.76;64.01;99453.09;1811653;78;22350;-69
2021/05/20 07:40:36;;;;;;;3.43;1.20;;;;;;;14.73;63.76;99455.06;1794010;79;20997;-69
2021/05/20 07:43:03;;;;;;;2.87;1.40;;;;;;;14.73;63.65;99451.81;1799045;78;21722;-70
2021/05/20 07:45:30;;;;;;;5.00;1.63;;;;;;;14.76;63.53;99442.34;1790949;78;21851;-69
2021/05/20 07:47:57;;;;;;;4.33;1.73;;;;;;;14.77;63.72;99464.90;1766443;79;21764;-69
2021/05/20 07:50:25;;;;;;;2.23;1.27;;;;;;;14.80;63.92;99474.77;1773800;79;22270;-68
2021/05/20 07:52:52;;;;;;;2.80;1.40;;;;;;;14.80;63.50;99467.50;1794222;78;21752;-67
2021/05/20 07:55:19;;;;;;;4.57;1.57;;;;;;;14.81;63.63;99446.78;1788316;78;21774;-70
2021/05/20 07:57:47;;;;;;;1.90;1.30;;;;;;;14.85;63.92;99470.61;1780703;79;21812;-69
2021/05/20 08:00:15;;;;;;;3.23;1.30;;;;;;;14.93;63.50;99478.69;1794109;78;22301;-70
2021/05/20 08:02:52;;;;;;;2.60;1.43;;;;;;;14.93;63.50;99478.69;1773811;79;21092;-69
2021/05/20 08:05:39;;;;;;;4.72;1.60;;;;;;;14.98;63.66;99468.35;1792346;78;21724;-70
2021/05/20 08:08:06;;;;;;;2.30;1.50;;;;;;;15.04;63.61;99489.97;1786142;78;22086;-70
2021/05/20 08:10:50;;;;;;;2.70;1.20;;;;;;;15.11;63.43;99484.13;1795225;78;21638;-70
2021/05/20 08:13:14;;;;;;;5.07;1.33;;;;;;;15.19;62.37;99484.13;1794422;78;21061;-70
2021/05/20 08:15:40;;;;;;;3.93;1.70;;;;;;;15.19;62.37;99484.13;1793311;78;21073;-69
2021/05/20 08:18:07;;;;;;;3.20;1.40;;;;;;;15.23;62.60;99493.17;1794399;78;21858;-68
2021/05/20 08:20:35;;;;;;;3.00;1.40;;;;;;;15.23;62.60;99493.17;1790108;78;21162;-68
2021/05/20 08:23:01;;;;;;;2.93;1.40;;;;;;;15.27;63.06;99505.45;1776000;78;21156;-69
2021/05/20 08:25:28;;;;;;;5.17;1.90;;;;;;;15.21;62.86;99510.17;1780766;79;21080;-70
2021/05/20 08:27:54;;;;;;;3.00;1.47;;;;;;;15.13;63.43;99505.55;1806909;77;21737;-70
2021/05/20 08:30:21;;;;;;;4.17;1.90;;;;;;;15.04;62.85;99522.23;1795298;78;21045;-69
2021/05/20 08:32:48;;;;;;;3.40;1.60;;;;;;;14.95;62.82;99514.13;1798758;78;22522;-70
2021/05/20 08:35:15;;;;;;;3.57;1.90;;;;;;;14.93;63.71;99517.67;1796746;78;22138;-69
2021/05/20 08:37:42;;;;;;;3.50;1.50;;;;;;;14.96;64.11;99521.08;1807102;78;21075;-68
2021/05/20 08:40:12;;;;;;;3.17;1.50;;;;;;;15.02;63.49;99516.36;1777751;79;21135;-69
2021/05/20 08:42:39;;;;;;;3.90;1.60;;;;;;;15.28;62.28;99516.99;1810399;77;22338;-70
2021/05/20 08:45:24;;;;;;;2.67;1.37;;;;;;;15.28;62.28;99516.99;1794475;78;21638;-70
2021/05/20 08:47:52;;;;;;;3.73;1.37;;;;;;;15.46;61.63;99518.06;1794263;78;21638;-69
2021/05/20 08:50:22;;;;;;;4.80;1.70;;;;;;;15.54;61.95;99505.72;1771898;79;21171;-69
2021/05/20 08:52:49;;;;;;;5.13;1.90;;;;;;;15.57;62.25;99508.34;1791620;78;21607;-69
2021/05/20 08:55:19;;;;;;;3.13;1.77;;;;;;;15.53;62.72;99513.56;1765635;79;21763;-68
2021/05/20 08:57:45;;;;;;;3.30;1.70;;;;;;;15.41;61.47;99538.38;1794392;78;21112;-68
2021/05/20 09:00:20;;;;;;;2.53;1.70;;;;;;;15.25;62.15;99531.30;1795911;78;20969;-69
2021/05/20 09:02:46;;;;;;;3.77;1.70;;;;;;;15.15;62.77;99535.63;1775309;79;21087;-69
2021/05/20 09:05:18;;;;;;;3.53;1.67;;;;;;;15.07;63.00;99530.21;1805029;78;21124;-69
2021/05/20 09:07:55;;;;;;;5.33;2.10;;;;;;;15.00;63.27;99535.52;1795060;78;21073;-69
2021/05/20 09:10:28;;;;;;;2.40;1.60;;;;;;;15.00;63.25;99535.52;1811665;77;21749;-69
2021/05/20 09:13:05;;;;;;;2.80;1.57;;;;;;;15.08;63.51;99530.47;1794631;78;21798;-69
2021/05/20 09:15:42;;;;;;;4.13;1.70;;;;;;;15.24;63.66;99536.45;1781709;78;21044;-69
2021/05/20 09:18:18;;;;;;;3.37;1.80;;;;;;;15.24;63.66;99536.45;1796808;78;21089;-69
2021/05/20 09:20:52;;;;;;;4.33;2.07;;;;;;;15.38;63.32;99561.09;1797939;78;21112;-69
2021/05/20 09:23:21;;;;;;;5.77;2.00;;;;;;;15.52;62.58;99550.98;1807051;77;21056;-69
2021/05/20 09:25:50;;;;;;;4.30;2.00;;;;;;;15.70;62.02;99545.89;1798034;78;21046;-68
2021/05/20 09:28:19;;;;;;;6.60;1.97;;;;;;;15.86;60.70;99553.48;1796045;78;21116;-69
2021/05/20 09:30:47;;;;;;;5.67;1.63;;;;;;;16.07;60.08;99534.81;1793600;78;21073;-68
2021/05/20 09:33:15;;;;;;;3.27;1.70;;;;;;;16.30;59.09;99527.33;1799836;78;21077;-68
2021/05/20 09:35:46;;;;;;;5.77;1.73;;;;;;;16.54;58.10;99539.70;1798767;78;21380;-69
2021/05/20 09:38:21;;;;;;;4.07;1.60;;;;;;;16.64;56.95;99570.36;1796119;78;21144;-69
2021/05/20 09:40:56;;;;;;;3.43;1.67;;;;;;;16.69;57.16;99553.80;1799575;78;21550;-68
2021/05/20 09:43:33;;;;;;;3.40;1.60;;;;;;;16.65;57.37;99565.23;1798272;78;21101;-68
2021/05/20 09:46:12;;;;;;;4.53;1.50;;;;;;;16.51;56.83;99556.52;1773079;78;21145;-69
2021/05/20 09:48:43;;;;;;;3.47;1.60;;;;;;;16.46;57.40;99564.80;1796281;78;21724;-69
2021/05/20 09:51:25;;;;;;;4.60;1.63;;;;;;;16.58;56.54;99561.42;1798386;78;21694;-68
2021/05/20 09:53:53;;;;;;;4.13;1.30;;;;;;;16.75;54.57;99560.61;1801902;78;21081;-68
2021/05/20 09:56:34;;;;;;;6.00;1.60;;;;;;;16.87;53.60;99563.43;1798794;79;21097;-68
2021/05/20 09:59:00;;;;;;;3.53;1.53;;;;;;;17.04;55.03;99543.13;1802275;78;21045;-68
2021/05/20 10:01:27;;;;;;;3.47;1.43;;;;;;;17.26;52.70;99539.93;1799456;78;21063;-69
2021/05/20 10:03:55;;;;;;;3.53;1.47;;;;;;;17.39;52.79;99545.65;1799001;78;21029;-68
2021/05/20 10:06:42;;;;;;;3.67;1.30;;;;;;;17.51;51.59;99557.89;1796330;78;21038;-68
2021/05/20 10:09:11;;;;;;;2.57;1.40;;;;;;;17.62;50.54;99548.05;1798069;78;21631;-68
2021/05/20 10:11:41;;;;;;;2.47;1.33;;;;;;;17.62;50.19;99577.19;1800458;78;21646;-69
2021/05/20 10:14:08;;;;;;;3.47;1.30;;;;;;;17.64;50.49;99557.98;1791988;79;21734;-68
2021/05/20 10:16:40;;;;;;;3.73;1.40;;;;;;;17.78;50.49;99551.78;1796459;78;21056;-70
2021/05/20 10:19:07;;;;;;;2.50;1.10;;;;;;;17.96;49.43;99550.50;1795862;78;21104;-69
2021/05/20 10:21:34;;;;;;;2.40;1.10;;;;;;;18.03;48.98;99555.38;1808551;77;21056;-69
2021/05/20 10:24:04;;;;;;;3.37;1.10;;;;;;;18.00;47.74;99561.47;1809362;77;21005;-69
2021/05/20 10:26:40;;;;;;;4.43;1.53;;;;;;;17.95;47.67;99558.39;1746626;79;21821;-69
2021/05/20 10:29:08;;;;;;;3.37;1.40;;;;;;;18.00;47.37;99576.33;1801864;77;21103;-69
2021/05/20 10:31:38;;;;;;;4.67;1.13;;;;;;;18.08;47.10;99562.51;1802291;78;21659;-69
2021/05/20 10:34:05;;;;;;;2.50;1.10;;;;;;;18.19;46.32;99567.72;1788511;80;21565;-69
2021/05/20 10:36:32;;;;;;;2.47;1.00;;;;;;;18.21;46.29;99560.08;1757894;80;21067;-69
2021/05/20 10:38:58;;;;;;;1.93;1.00;;;;;;;18.12;46.46;99564.20;1755599;80;21885;-69
2021/05/20 10:41:27;;;;;;;5.23;1.27;;;;;;;17.98;47.02;99576.64;1696451;81;21029;-69
2021/05/20 10:44:07;;;;;;;2.50;1.00;;;;;;;17.82;47.16;99587.80;1799693;78;21073;-69
2021/05/20 10:47:03;;;;;;;4.83;1.13;;;;;;;17.67;47.82;99587.00;1798351;78;21081;-68
2021/05/20 10:49:53;;;;;;;1.47;1.00;;;;;;;17.49;47.79;99601.17;1791826;78;21167;-69
2021/05/20 10:52:40;;;;;;;4.60;1.20;;;;;;;17.32;48.67;99600.70;1798132;78;21132;-67
2021/05/20 10:55:10;;;;;;;2.40;1.03;;;;;;;17.15;48.96;99604.84;1776953;79;21072;-68
2021/05/20 10:58:02;;;;;;;3.53;1.20;;;;;;;17.02;49.81;99618.21;1788281;79;21150;-69
2021/05/20 11:00:42;;;;;;;3.80;1.20;;;;;;;16.96;49.92;99607.36;1797383;78;21152;-69
2021/05/20 11:03:09;;;;;;;2.57;1.20;;;;;;;17.00;49.77;99612.89;1777630;80;21091;-69
2021/05/20 11:05:48;;;;;;;2.67;1.10;;;;;;;17.09;49.67;99622.55;1785175;78;21248;-69
2021/05/20 11:08:38;;;;;;;2.00;0.87;;;;;;;17.30;49.95;99617.77;1802327;78;21087;-68
2021/05/20 11:11:09;;;;;;;1.87;1.20;;;;;;;17.52;49.03;99620.20;1774615;79;21109;-69
2021/05/20 11:13:41;;;;;;;3.30;1.37;;;;;;;17.80;49.46;99619.21;1766583;81;21132;-69
2021/05/20 11:16:13;;;;;;;2.95;1.20;;;;;;;18.11;48.05;99610.48;1769357;79;21008;-69
2021/05/20 11:18:42;;;;;;;2.23;0.90;;;;;;;18.36;46.43;99600.56;1812304;77;21103;-70
2021/05/20 11:21:10;;;;;;;3.53;1.30;;;;;;;18.47;46.89;99595.77;1811644;77;21051;-69
2021/05/20 11:23:37;;;;;;;2.13;1.00;;;;;;;18.53;47.06;99607.75;1807257;78;21207;-69
2021/05/20 11:26:16;;;;;;;2.73;1.33;;;;;;;18.47;46.74;99594.42;1798208;78;21085;-68
2021/05/20 11:28:55;;;;;;;4.27;1.30;;;;;;;18.33;46.65;99603.39;1796380;78;21117;-69
2021/05/20 11:31:23;;;;;;;5.80;1.30;;;;;;;18.09;47.35;99601.91;1786277;78;22165;-68
2021/05/20 11:36:47;;;;;;;2.67;1.40;;;;;;;17.85;48.16;99605.27;1811404;78;21599;-68
2021/05/20 11:39:17;;;;;;;2.87;1.33;;;;;;;17.82;48.66;99608.06;1779348;79;21657;-68
2021/05/20 11:41:44;;;;;;;3.93;1.50;;;;;;;17.82;49.14;99612.12;1754194;80;21585;-68
2021/05/20 11:44:22;;;;;;;6.20;1.50;;;;;;;17.83;48.87;99607.50;1799455;79;21098;-69
2021/05/20 11:47:11;;;;;;;4.20;1.40;;;;;;;17.85;48.37;99608.77;1795556;78;21113;-69
2021/05/20 11:49:38;;;;;;;4.10;1.40;;;;;;;17.79;48.14;99605.45;1796450;78;21370;-68